Pagrindinis puslapis
METAR-TAF:

METAR-TAF

Oro uostai :

Upsala, Švedija

platuma: 59-53N, ilguma: 017-36E, Aukštis: 21 m

Dabartinis oras

Ataskaita buvo paskelbta 40 minutes, ne 08:50 UTC
Vėjas 6 kt iš Šiaurės/Šiaurės Vakarų
Temperatūra -4°C
Drėgmė 93%
Slėgis 1010 hPa
Matomumas 10 km arba daugiau

METAR: ESCM 100850Z AUTO 33006KT 9999 OVC009/// M04/M05 Q1010

Laikas: 10:30 (09:30 UTC)

Prognozė

Ataskaita buvo paskelbta 25 valandos ir 5 minutes, ne 08:25 UTC
Prognozė galioja nuo 09 metu 09 UTC su 09 metu 12 UTC
Vėjas 3 kt iš Šiaurės
Matomumas 10 km arba daugiau
Su prošvaistėmis ne aukštis 300 ft
Laikinai
nuo 09 metu 09 UTC su 09 metu 12 UTC
Išsisklaidę debesys ne aukštis 400 ft
Su prošvaistėmis ne aukštis 4000 ft
sniegas

TAF: ESCM 090825Z 0909/0912 35003KT 9999 BKN003 TEMPO 0909/0912 -SN SCT004 BKN040 RMK MIL

Orai ataskaitas ir orų prognozės (METAR, TAF).

turimą stotys yra geltonos ir raudonos taškus žemėlapyje.

Perkelti pele per norėdami pamatyti stoties vardą.

Tada spustelėkite, norėdami matyti oro stebėjimo ir prognozės.

Norėdami pakeisti žemėlapį: spustelėkite ant žalios mygtukų su juodo kryžiaus žemyn,; žalią mygtuką su brūkšneliu, jei norite nutolinti; arba žalių rodyklių gretimoms žemėlapius.


METAR-TAF: